createdAt,value
2022-07-30T00:01:44.789Z,99808.64
2022-07-30T00:04:52.674Z,99809.06
2022-07-30T00:07:55.744Z,99808.53
2022-07-30T00:10:58.555Z,99807.55
2022-07-30T00:14:02.288Z,99810.21
2022-07-30T00:17:05.534Z,99813.30
2022-07-30T00:20:09.414Z,99818.20
2022-07-30T00:23:15.521Z,99821.92
2022-07-30T00:26:18.491Z,99822.66
2022-07-30T00:29:21.366Z,99824.50
2022-07-30T00:32:24.340Z,99825.54
2022-07-30T00:35:27.674Z,99814.88
2022-07-30T00:38:30.686Z,99810.63
2022-07-30T00:41:33.658Z,99802.48
2022-07-30T00:44:36.686Z,99802.41
2022-07-30T00:47:44.825Z,99806.98
2022-07-30T00:50:47.692Z,99808.19
2022-07-30T00:53:51.383Z,99805.41
2022-07-30T00:56:54.356Z,99799.19
2022-07-30T00:59:57.944Z,99796.37
2022-07-30T01:03:00.912Z,99792.16
2022-07-30T01:06:03.886Z,99778.01
2022-07-30T01:09:07.681Z,99782.27
2022-07-30T01:12:11.721Z,99785.30
2022-07-30T01:15:15.364Z,99791.19
2022-07-30T01:18:18.947Z,99789.86
2022-07-30T01:21:32.561Z,99783.34
2022-07-30T01:24:48.530Z,99778.61
2022-07-30T01:27:57.552Z,99773.48
2022-07-30T01:31:02.411Z,99777.91
2022-07-30T01:34:06.555Z,99783.64
2022-07-30T01:37:12.040Z,99787.89
2022-07-30T01:40:15.682Z,99788.59
2022-07-30T01:43:21.647Z,99789.05
2022-07-30T01:46:27.355Z,99784.61
2022-07-30T01:49:32.713Z,99778.55
2022-07-30T01:52:38.445Z,99770.41
2022-07-30T01:55:42.916Z,99771.52
2022-07-30T01:58:49.068Z,99772.46
2022-07-30T02:01:52.252Z,99766.54
2022-07-30T02:05:01.393Z,99765.95
2022-07-30T02:08:25.203Z,99759.45
2022-07-30T02:11:46.593Z,99765.18
2022-07-30T02:15:10.293Z,99772.64
2022-07-30T02:18:35.827Z,99767.82
2022-07-30T02:22:08.817Z,99759.29
2022-07-30T02:25:17.545Z,99751.90
2022-07-30T02:28:23.526Z,99745.92
2022-07-30T02:31:28.741Z,99746.27
2022-07-30T02:34:34.316Z,99740.95
2022-07-30T02:37:43.541Z,99734.33
2022-07-30T02:40:48.972Z,99729.41
2022-07-30T02:43:55.422Z,99722.05
2022-07-30T02:47:00.491Z,99715.20
2022-07-30T02:50:11.051Z,99713.64
2022-07-30T02:53:15.197Z,99708.61
2022-07-30T02:56:21.592Z,99705.80
2022-07-30T02:59:26.970Z,99711.80
2022-07-30T03:02:31.638Z,99709.35
2022-07-30T03:05:36.037Z,99708.27
2022-07-30T03:08:41.975Z,99711.02
2022-07-30T03:11:46.286Z,99713.16
2022-07-30T03:14:49.455Z,99713.55
2022-07-30T03:17:55.781Z,99715.34
2022-07-30T03:21:01.538Z,99716.66
2022-07-30T03:24:08.395Z,99721.88
2022-07-30T03:27:11.879Z,99721.63
2022-07-30T03:30:15.070Z,99719.23
2022-07-30T03:33:19.995Z,99716.66
2022-07-30T03:36:23.461Z,99717.17
2022-07-30T03:39:28.101Z,99721.10
2022-07-30T03:42:32.884Z,99725.65
2022-07-30T03:45:38.218Z,99723.25
2022-07-30T03:48:42.312Z,99727.04
2022-07-30T03:51:46.718Z,99728.44
2022-07-30T03:54:50.301Z,99725.11
2022-07-30T03:57:53.413Z,99724.17
2022-07-30T04:00:56.450Z,99719.63
2022-07-30T04:04:10.049Z,99717.49
2022-07-30T04:07:13.320Z,99718.41
2022-07-30T04:10:17.036Z,99718.34
2022-07-30T04:13:20.217Z,99717.34
2022-07-30T04:16:42.095Z,99714.05
2022-07-30T04:19:49.959Z,99712.39
2022-07-30T04:22:55.020Z,99714.88
2022-07-30T04:25:58.200Z,99719.58
2022-07-30T04:29:02.811Z,99723.59
2022-07-30T04:32:13.455Z,99721.25
2022-07-30T04:35:49.738Z,99723.35
2022-07-30T04:38:39.569Z,99725.63
2022-07-30T04:41:49.673Z,99723.05
2022-07-30T04:44:53.802Z,99720.59
2022-07-30T04:47:56.669Z,99719.56
2022-07-30T04:51:02.716Z,99721.57
2022-07-30T04:54:15.583Z,99722.55
2022-07-30T04:57:20.748Z,99723.56
2022-07-30T05:00:24.018Z,99722.53
2022-07-30T05:03:27.824Z,99721.83
2022-07-30T05:06:33.645Z,99721.33
2022-07-30T05:09:36.842Z,99720.61
2022-07-30T05:12:40.199Z,99725.13
2022-07-30T05:15:45.004Z,99730.31
2022-07-30T05:18:48.199Z,99730.07
2022-07-30T05:21:51.879Z,99728.48
2022-07-30T05:24:54.860Z,99730.76
2022-07-30T05:27:58.540Z,99732.98
2022-07-30T05:31:01.434Z,99730.00
2022-07-30T05:34:11.138Z,99732.55
2022-07-30T05:37:14.419Z,99737.91
2022-07-30T05:40:17.498Z,99735.79
2022-07-30T05:43:20.477Z,99733.09
2022-07-30T05:46:24.117Z,99738.53
2022-07-30T05:49:27.272Z,99740.90
2022-07-30T05:52:30.304Z,99742.69
2022-07-30T05:55:35.523Z,99743.18
2022-07-30T05:58:40.139Z,99747.80
2022-07-30T06:01:43.042Z,99749.85
2022-07-30T06:05:10.848Z,99750.84
2022-07-30T06:08:13.817Z,99758.05
2022-07-30T06:11:16.790Z,99762.97
2022-07-30T06:14:46.573Z,99766.50
2022-07-30T06:17:58.181Z,99772.23
2022-07-30T06:21:05.008Z,99778.42
2022-07-30T06:24:09.815Z,99782.97
2022-07-30T06:27:12.900Z,99785.23
2022-07-30T06:30:16.070Z,99796.42
2022-07-30T06:33:18.940Z,99795.80
2022-07-30T06:36:21.812Z,99800.13
2022-07-30T06:39:56.321Z,99797.59
2022-07-30T06:42:48.187Z,99795.92
2022-07-30T06:45:51.447Z,99798.59
2022-07-30T06:48:54.392Z,99802.35
2022-07-30T06:51:57.342Z,99795.98
2022-07-30T06:55:00.238Z,99799.48
2022-07-30T06:58:03.191Z,99801.31
2022-07-30T07:01:11.118Z,99798.60
2022-07-30T07:04:15.146Z,99801.60
2022-07-30T07:07:40.712Z,99801.63
2022-07-30T07:10:45.267Z,99794.77
2022-07-30T07:13:48.134Z,99794.06
2022-07-30T07:16:51.135Z,99790.61
2022-07-30T07:20:01.254Z,99792.15
2022-07-30T07:23:09.128Z,99789.04
2022-07-30T07:26:16.092Z,99785.81
2022-07-30T07:29:19.013Z,99780.21
2022-07-30T07:32:21.938Z,99783.07
2022-07-30T07:35:24.801Z,99779.63
2022-07-30T07:38:28.081Z,99780.10
2022-07-30T07:41:31.059Z,99784.02
2022-07-30T07:44:52.343Z,99781.96
2022-07-30T07:47:55.631Z,99781.34
2022-07-30T07:51:00.640Z,99783.16
2022-07-30T07:54:20.385Z,99784.46
2022-07-30T07:57:24.815Z,99786.14
2022-07-30T08:00:29.828Z,99785.39
2022-07-30T08:03:32.903Z,99787.54
2022-07-30T08:06:37.001Z,99783.06
2022-07-30T08:09:43.722Z,99781.89
2022-07-30T08:12:48.067Z,99785.21
2022-07-30T08:15:51.258Z,99785.18
2022-07-30T08:18:54.962Z,99789.97
2022-07-30T08:21:59.948Z,99792.98
2022-07-30T08:25:04.068Z,99792.08
2022-07-30T08:28:07.245Z,99795.04
2022-07-30T08:31:49.137Z,99791.16
2022-07-30T08:34:52.210Z,99793.22
2022-07-30T08:38:20.755Z,99791.52
2022-07-30T08:41:25.615Z,99789.13
2022-07-30T08:44:29.710Z,99791.00
2022-07-30T08:47:34.534Z,99792.38
2022-07-30T08:50:40.775Z,99786.38
2022-07-30T08:53:44.771Z,99789.30
2022-07-30T08:56:51.838Z,99791.02
2022-07-30T09:00:01.197Z,99788.79
2022-07-30T09:03:44.180Z,99790.94
2022-07-30T09:07:01.943Z,99789.78
2022-07-30T09:10:06.588Z,99796.41
2022-07-30T09:13:32.153Z,99790.94
2022-07-30T09:16:35.438Z,99786.27
2022-07-30T09:19:38.610Z,99786.93
2022-07-30T09:22:45.389Z,99788.31
2022-07-30T09:25:50.181Z,99786.40
2022-07-30T09:28:53.668Z,99790.35
2022-07-30T09:32:05.608Z,99787.66
2022-07-30T09:35:14.211Z,99795.77
2022-07-30T09:38:17.143Z,99793.88
2022-07-30T09:41:42.399Z,99790.40
2022-07-30T09:44:46.397Z,99788.56
2022-07-30T09:47:50.637Z,99785.90
2022-07-30T09:50:55.516Z,99783.42
2022-07-30T09:54:00.631Z,99782.60
2022-07-30T09:57:25.750Z,99782.11
2022-07-30T10:00:32.365Z,99779.08
2022-07-30T10:03:42.540Z,99785.37
2022-07-30T10:06:46.085Z,99786.30
2022-07-30T10:09:49.880Z,99788.16
2022-07-30T10:13:07.634Z,99783.88
2022-07-30T10:16:10.765Z,99778.64
2022-07-30T10:19:18.048Z,99781.95
2022-07-30T10:22:22.642Z,99783.75
2022-07-30T10:25:27.902Z,99790.51
2022-07-30T10:28:35.790Z,99795.06
2022-07-30T10:31:48.490Z,99796.45
2022-07-30T10:34:53.169Z,99795.17
2022-07-30T10:37:59.726Z,99796.96
2022-07-30T10:41:44.528Z,99796.06
2022-07-30T10:45:17.533Z,99795.79
2022-07-30T10:48:22.409Z,99797.68
2022-07-30T10:51:46.630Z,99797.91
2022-07-30T10:54:53.632Z,99794.67
2022-07-30T10:58:08.589Z,99793.27
2022-07-30T11:01:22.726Z,99795.19
2022-07-30T11:04:54.578Z,99800.25
2022-07-30T11:08:31.849Z,99803.73
2022-07-30T11:12:01.181Z,99803.79
2022-07-30T11:16:00.218Z,99803.82
2022-07-30T11:19:56.583Z,99813.41
2022-07-30T11:22:42.642Z,99812.91
2022-07-30T11:25:51.705Z,99813.86
2022-07-30T11:28:57.790Z,99817.45
2022-07-30T11:42:30.970Z,99804.25
2022-07-30T11:45:34.514Z,99805.17
2022-07-30T11:48:39.704Z,99806.62
2022-07-30T11:51:44.918Z,99804.31
2022-07-30T11:59:25.706Z,99806.20
2022-07-30T12:02:29.211Z,99806.59
2022-07-30T12:05:32.094Z,99809.40
2022-07-30T12:08:58.193Z,99810.80
2022-07-30T12:12:02.555Z,99816.26
2022-07-30T12:15:29.034Z,99816.46
2022-07-30T12:18:32.069Z,99820.23
2022-07-30T12:21:36.251Z,99823.76
2022-07-30T12:24:39.179Z,99828.34
2022-07-30T12:27:52.249Z,99834.62
2022-07-30T12:30:56.901Z,99836.44
2022-07-30T12:34:02.158Z,99822.46
2022-07-30T12:37:10.607Z,99827.88
2022-07-30T12:40:16.731Z,99828.00
2022-07-30T12:43:45.478Z,99827.88
2022-07-30T12:46:49.372Z,99822.35
2022-07-30T12:49:54.534Z,99818.90
2022-07-30T12:52:57.567Z,99812.50
2022-07-30T12:56:14.764Z,99810.98
2022-07-30T12:59:22.554Z,99804.89
2022-07-30T13:02:33.565Z,99799.76
2022-07-30T13:05:48.679Z,99802.24
2022-07-30T13:08:57.046Z,99799.40
2022-07-30T13:12:00.846Z,99800.55
2022-07-30T13:15:05.514Z,99803.72
2022-07-30T13:18:08.523Z,99804.20
2022-07-30T13:21:11.919Z,99805.54
2022-07-30T13:24:18.452Z,99799.78
2022-07-30T13:27:22.149Z,99794.46
2022-07-30T13:30:25.116Z,99792.06
2022-07-30T13:33:28.176Z,99793.15
2022-07-30T13:36:31.163Z,99795.95
2022-07-30T13:39:34.553Z,99795.95
2022-07-30T13:42:40.496Z,99802.27
2022-07-30T13:45:44.324Z,99807.77
2022-07-30T13:48:47.393Z,99812.55
2022-07-30T13:51:50.326Z,99809.33
2022-07-30T13:54:54.527Z,99805.64
2022-07-30T13:57:58.112Z,99804.39
2022-07-30T14:01:01.266Z,99801.52
2022-07-30T14:04:05.972Z,99800.78
2022-07-30T14:07:08.977Z,99806.37
2022-07-30T14:10:12.256Z,99807.14
2022-07-30T14:13:19.415Z,99809.59
2022-07-30T14:16:44.294Z,99806.66
2022-07-30T14:19:47.645Z,99809.92
2022-07-30T14:22:52.389Z,99807.67
2022-07-30T14:25:55.264Z,99801.91
2022-07-30T14:28:58.131Z,99802.82
2022-07-30T14:32:01.508Z,99800.92
2022-07-30T14:35:11.642Z,99800.58
2022-07-30T14:38:14.622Z,99796.55
2022-07-30T14:41:17.691Z,99798.15
2022-07-30T14:44:20.580Z,99798.14
2022-07-30T14:47:23.531Z,99800.39
2022-07-30T14:50:26.405Z,99800.46
2022-07-30T14:53:29.373Z,99802.20
2022-07-30T14:56:32.349Z,99805.43
2022-07-30T14:59:35.734Z,99802.29
2022-07-30T15:02:41.259Z,99802.61
2022-07-30T15:05:45.382Z,99805.83
2022-07-30T15:08:50.902Z,99811.02
2022-07-30T15:12:18.010Z,99813.11
2022-07-30T15:15:18.017Z,99816.33
2022-07-30T15:18:23.043Z,99818.27
2022-07-30T15:21:26.010Z,99815.80
2022-07-30T15:24:28.981Z,99813.77
2022-07-30T15:27:34.261Z,99808.58
2022-07-30T15:30:37.685Z,99807.09
2022-07-30T15:33:43.319Z,99804.94
2022-07-30T15:36:46.505Z,99805.46
2022-07-30T15:39:49.472Z,99804.41
2022-07-30T15:42:53.363Z,99806.64
2022-07-30T15:45:56.725Z,99804.80
2022-07-30T15:48:59.766Z,99803.80
2022-07-30T15:52:02.953Z,99797.52
2022-07-30T15:55:06.954Z,99797.01
2022-07-30T15:58:10.065Z,99794.52
2022-07-30T16:01:13.987Z,99795.98
2022-07-30T16:04:19.953Z,99800.04
2022-07-30T16:07:23.076Z,99797.35
2022-07-30T16:10:26.264Z,99798.04
2022-07-30T16:13:29.329Z,99792.16
2022-07-30T16:16:32.507Z,99792.75
2022-07-30T16:19:35.579Z,99798.33
2022-07-30T16:22:38.566Z,99799.05
2022-07-30T16:25:41.627Z,99800.84
2022-07-30T16:28:44.909Z,99798.84
2022-07-30T16:31:47.981Z,99799.43
2022-07-30T16:34:51.369Z,99798.65
2022-07-30T16:37:56.486Z,99800.58
2022-07-30T16:40:59.455Z,99802.52
2022-07-30T16:44:02.743Z,99806.78
2022-07-30T16:47:05.608Z,99810.48
2022-07-30T16:50:09.602Z,99815.27
2022-07-30T16:53:14.647Z,99814.85
2022-07-30T16:56:18.822Z,99823.14
2022-07-30T16:59:22.722Z,99820.13
2022-07-30T17:02:25.910Z,99817.45
2022-07-30T17:05:29.382Z,99813.63
2022-07-30T17:08:32.962Z,99814.84
2022-07-30T17:11:46.324Z,99819.42
2022-07-30T17:14:55.079Z,99824.46
2022-07-30T17:17:58.051Z,99825.11
2022-07-30T17:21:01.226Z,99824.23
2022-07-30T17:24:11.295Z,99827.94
2022-07-30T17:27:15.049Z,99823.64
2022-07-30T17:30:18.743Z,99824.86
2022-07-30T17:33:24.517Z,99822.44
2022-07-30T17:36:27.873Z,99825.25
2022-07-30T17:40:19.038Z,99829.33
2022-07-30T17:42:54.572Z,99832.58
2022-07-30T17:45:57.760Z,99836.52
2022-07-30T17:49:01.519Z,99836.67
2022-07-30T17:52:09.733Z,99841.47
2022-07-30T17:55:16.487Z,99842.86
2022-07-30T17:58:24.855Z,99845.41
2022-07-30T18:01:28.450Z,99844.63
2022-07-30T18:05:03.140Z,99844.12
2022-07-30T18:08:06.450Z,99845.48
2022-07-30T18:11:13.904Z,99844.70
2022-07-30T18:14:17.225Z,99846.23
2022-07-30T18:17:20.488Z,99850.04
2022-07-30T18:20:23.976Z,99848.48
2022-07-30T18:23:35.036Z,99854.98
2022-07-30T18:26:40.405Z,99854.33
2022-07-30T18:29:43.653Z,99856.84
2022-07-30T18:32:53.466Z,99854.85
2022-07-30T18:35:56.849Z,99854.70
2022-07-30T18:38:59.873Z,99858.94
2022-07-30T18:42:04.190Z,99864.38
2022-07-30T18:45:08.629Z,99866.27
2022-07-30T18:48:12.146Z,99871.14
2022-07-30T18:51:15.616Z,99877.99
2022-07-30T18:54:18.703Z,99879.67
2022-07-30T18:57:22.164Z,99885.21
2022-07-30T19:00:34.637Z,99885.85
2022-07-30T19:03:38.840Z,99887.87
2022-07-30T19:06:42.059Z,99888.00
2022-07-30T19:09:45.739Z,99893.60
2022-07-30T19:12:48.895Z,99890.52
2022-07-30T19:15:52.161Z,99894.98
2022-07-30T19:18:55.236Z,99902.67
2022-07-30T19:21:59.970Z,99906.06
2022-07-30T19:25:03.333Z,99907.08
2022-07-30T19:28:06.718Z,99907.06
2022-07-30T19:31:10.595Z,99908.47
2022-07-30T19:34:13.890Z,99908.89
2022-07-30T19:37:17.470Z,99916.48
2022-07-30T19:40:20.459Z,99913.44
2022-07-30T19:43:25.873Z,99912.56
2022-07-30T19:46:31.710Z,99910.45
2022-07-30T19:49:40.819Z,99909.11
2022-07-30T19:52:50.954Z,99912.29
2022-07-30T19:55:54.934Z,99909.11
2022-07-30T19:58:58.339Z,99908.20
2022-07-30T20:02:01.467Z,99904.34
2022-07-30T20:05:10.943Z,99903.44
2022-07-30T20:08:15.949Z,99900.66
2022-07-30T20:11:20.903Z,99901.05
2022-07-30T20:14:27.215Z,99896.48
2022-07-30T20:17:30.602Z,99895.55
2022-07-30T20:20:38.028Z,99898.45
2022-07-30T20:23:45.233Z,99902.52
2022-07-30T20:26:48.724Z,99904.80
2022-07-30T20:29:53.444Z,99904.49
2022-07-30T20:32:56.611Z,99905.96
2022-07-30T20:36:01.432Z,99903.41
2022-07-30T20:39:05.026Z,99896.75
2022-07-30T20:42:08.168Z,99898.84
2022-07-30T20:45:12.419Z,99897.25
2022-07-30T20:48:25.390Z,99892.23
2022-07-30T20:51:32.912Z,99895.36
2022-07-30T20:54:37.555Z,99894.02
2022-07-30T20:57:57.336Z,99891.23
2022-07-30T21:01:17.272Z,99889.00
2022-07-30T21:04:23.974Z,99886.67
2022-07-30T21:07:36.699Z,99887.48
2022-07-30T21:14:04.394Z,99886.73
2022-07-30T21:17:11.863Z,99890.62
2022-07-30T21:20:15.045Z,99891.30
2022-07-30T21:23:22.570Z,99892.81
2022-07-30T21:26:26.104Z,99897.61
2022-07-30T21:29:29.282Z,99892.56
2022-07-30T21:32:32.157Z,99887.95
2022-07-30T21:35:35.026Z,99889.61
2022-07-30T21:38:40.426Z,99894.13
2022-07-30T21:41:45.372Z,99901.35
2022-07-30T21:44:48.237Z,99904.29
2022-07-30T21:47:51.620Z,99905.64
2022-07-30T21:50:55.307Z,99903.98
2022-07-30T21:53:58.285Z,99908.26
2022-07-30T21:57:01.153Z,99909.98
2022-07-30T22:00:10.635Z,99911.02
2022-07-30T22:04:00.581Z,99913.06
2022-07-30T22:06:41.256Z,99914.23
2022-07-30T22:09:44.458Z,99912.76
2022-07-30T22:12:50.498Z,99913.44
2022-07-30T22:15:54.391Z,99912.36
2022-07-30T22:18:58.727Z,99910.90
2022-07-30T22:22:26.601Z,99910.84
2022-07-30T22:25:43.942Z,99906.93
2022-07-30T22:28:52.604Z,99907.05
2022-07-30T22:31:58.681Z,99909.86
2022-07-30T22:35:04.482Z,99906.70
2022-07-30T22:38:08.440Z,99908.23
2022-07-30T22:41:14.170Z,99905.52
2022-07-30T22:44:17.321Z,99901.66
2022-07-30T22:47:21.611Z,99902.60
2022-07-30T22:50:43.218Z,99899.49
2022-07-30T22:54:10.886Z,99897.70
2022-07-30T22:57:09.222Z,99899.42
2022-07-30T23:00:14.615Z,99897.59
2022-07-30T23:03:30.421Z,99896.68
2022-07-30T23:06:33.692Z,99895.70
2022-07-30T23:09:49.289Z,99887.14
2022-07-30T23:12:26.824Z,99885.38
2022-07-30T23:12:55.677Z,99888.77
2022-07-30T23:15:58.987Z,99890.05
2022-07-30T23:19:02.676Z,99886.42
2022-07-30T23:22:07.325Z,99879.92
2022-07-30T23:25:11.912Z,99879.26
2022-07-30T23:28:14.863Z,99885.39
2022-07-30T23:31:17.733Z,99889.58
2022-07-30T23:34:21.016Z,99889.06
2022-07-30T23:37:24.000Z,99884.64
2022-07-30T23:40:26.856Z,99878.70
2022-07-30T23:43:37.302Z,99874.20
2022-07-30T23:46:40.988Z,99873.55
2022-07-30T23:49:43.857Z,99870.46
2022-07-30T23:52:46.628Z,99874.08
2022-07-30T23:55:50.650Z,99874.18
2022-07-30T23:58:53.494Z,99871.67
